Latest Weather Observations for Mackay

IDQ60801

Issued at 6:06 pm EST Tuesday 31 March 2015 (issued every 30 minutes, with the page automatically refreshed every 10 minutes)

About weather observations | Map of weather stations | Latest weather observations for QLD | Other Formats
Station Details ID: 033119 Name: MACKAY M.O Lat: -21.12 Lon: 149.22 Height: 30.26 m
Data from the previous 72 hours. | See also: Recent months at Mackay
Date/Time
EST
Temp
°C
App
Temp
°C
Dew
Point
Rel
Hum
%
Delta-T
°C
Wind Press
QNH
hPa
Press
MSL
hPa
Rain
since 9 am
mm
Dir
 
Spd
km/h
Gust
km/h
Spd
kts
Gust
kts
31/06:00pm 25.7 27.4 22.4 82 2.2 SE 17 28 9 15 1015.5 1015.3 0.8
31/05:30pm 25.7 26.5 21.8 79 2.6 SSE 20 30 11 16 1015.2 1015.0 0.8
31/05:00pm 25.8 26.2 20.9 74 3.2 SSE 20 35 11 19 1015.0 1014.8 0.8
31/04:30pm 26.3 26.6 22.3 78 2.7 SE 24 43 13 23 1014.7 1014.5 0.8
31/04:00pm 27.4 28.4 22.8 76 3.1 SSE 22 35 12 19 1014.4 1014.2 0.8
31/03:30pm 26.7 27.8 22.4 77 2.9 SE 20 33 11 18 1014.7 1014.5 0.8
31/03:00pm 26.2 26.5 20.4 70 3.8 SSE 19 30 10 16 1015.0 1014.8 0.8
31/02:30pm 27.1 27.8 23.0 78 2.8 SSE 24 37 13 20 1015.1 1014.9 0.6
31/02:00pm 26.6 27.7 23.7 84 2.0 SSE 24 35 13 19 1015.2 1015.0 0.6
31/01:30pm 26.4 28.9 24.5 89 1.3 SSE 19 28 10 15 1015.9 1015.7 0.6
31/01:00pm 25.0 27.5 23.8 93 0.8 SSE 17 24 9 13 1016.4 1016.2 0.6
31/12:30pm 25.3 26.3 22.8 86 1.7 SE 22 37 12 20 1017.0 1016.8 0.2
31/12:00pm 27.4 28.7 23.3 78 2.8 SSE 22 35 12 19 1017.2 1017.0 0.2
31/11:30am 27.0 28.8 23.5 81 2.4 SSE 20 30 11 16 1017.8 1017.6 0.0
31/11:00am 27.1 28.9 23.3 80 2.6 SSE 19 28 10 15 1018.1 1017.9 0.0
31/10:30am 26.6 28.5 23.5 83 2.1 SSE 19 28 10 15 1018.3 1018.1 0.0
31/10:00am 26.0 28.1 23.1 84 2.0 SSE 17 26 9 14 1018.6 1018.4 0.0
31/09:30am 26.5 28.5 23.6 84 2.0 S 19 28 10 15 1018.3 1018.1 0.0
31/09:00am 25.2 27.1 22.7 86 1.7 S 17 26 9 14 1018.5 1018.3 16.0
31/08:30am 24.3 26.9 22.7 91 1.1 S 13 20 7 11 1018.4 1018.2 16.0
31/08:00am 24.0 25.4 21.9 88 1.4 S 17 22 9 12 1018.2 1018.0 16.0
31/07:30am 23.1 23.9 21.7 92 0.9 S 20 30 11 16 1017.9 1017.7 16.0
31/07:00am 22.7 22.1 21.3 92 0.9 SSE 26 43 14 23 1017.5 1017.3 16.0
31/06:33am 23.4 22.9 22.2 93 0.8 SSE 28 46 15 25 1017.1 1016.9 14.4
31/06:30am 23.5 22.8 22.5 94 0.7 SSE 30 44 16 24 1017.0 1016.8 14.4
31/06:02am 23.0 22.1 22.1 95 0.6 SSE 30 46 16 25 1016.8 1016.6 14.4
31/05:34am 23.2 23.3 22.5 96 0.5 SSE 26 39 14 21 1016.7 1016.5 14.2
31/05:30am 23.1 22.6 22.2 95 0.6 SSE 28 41 15 22 1016.7 1016.5 14.2
31/05:00am 23.6 23.1 22.9 96 0.5 SSE 30 46 16 25 1016.1 1015.9 13.4
31/04:59am 23.6 23.5 22.9 96 0.5 SSE 28 46 15 25 1016.1 1015.9 13.4
31/04:48am 23.7 25.3 22.8 95 0.6 S 19 28 10 15 1016.1 1015.9 13.2
31/04:30am 23.5 25.3 22.5 94 0.7 S 17 26 9 14 1016.1 1015.9 13.2
31/04:00am 25.4 26.7 21.6 79 2.5 SE 17 26 9 14 1016.0 1015.8 13.2
31/03:30am 25.4 26.8 21.8 80 2.4 ESE 17 24 9 13 1016.1 1015.9 13.2
31/03:00am 24.6 27.1 22.4 87 1.5 SE 13 20 7 11 1016.0 1015.8 13.2
31/02:30am 23.9 25.4 22.7 93 0.8 SE 19 30 10 16 1016.5 1016.3 13.2
31/02:00am 23.8 24.9 22.0 90 1.2 SE 19 33 10 18 1016.8 1016.6 13.2
31/01:30am 25.0 26.9 22.8 87 1.5 ESE 17 32 9 17 1017.1 1016.9 13.2
31/01:00am 23.6 26.1 22.4 93 0.8 ENE 13 20 7 11 1017.4 1017.2 13.2
31/12:30am 23.4 25.3 22.7 96 0.5 ENE 17 26 9 14 1017.8 1017.6 13.2
31/12:00am 23.9 23.8 22.9 94 0.7 E 28 44 15 24 1018.2 1018.0 11.8
 
Date/Time
EST
Temp
°C
App
Temp
°C
Dew
Point
Rel
Hum
%
Delta-T
°C
Wind Press
QNH
hPa
Press
MSL
hPa
Rain
since 9 am
mm
Dir
 
Spd
km/h
Gust
km/h
Spd
kts
Gust
kts
30/11:57pm 23.9 23.8 22.9 94 0.7 E 28 48 15 26 1018.2 1018.0 11.0
30/11:30pm 25.5 27.3 22.5 83 2.0 E 17 24 9 13 1018.3 1018.1 10.6
30/11:00pm 25.1 28.0 23.2 89 1.3 E 13 22 7 12 1018.3 1018.1 10.6
30/10:30pm 24.8 25.7 22.6 87 1.5 E 22 32 12 17 1018.6 1018.4 10.6
30/10:00pm 23.4 23.4 22.4 94 0.7 E 26 37 14 20 1018.9 1018.7 10.6
30/09:30pm 24.9 25.8 23.4 91 1.0 E 24 41 13 22 1018.9 1018.7 2.4
30/09:00pm 26.1 28.4 22.8 82 2.2 ESE 15 26 8 14 1018.9 1018.7 1.0
30/08:30pm 25.9 28.2 22.8 83 2.1 ESE 15 24 8 13 1018.7 1018.5 1.0
30/08:00pm 25.1 27.0 22.7 86 1.6 ESE 17 28 9 15 1018.6 1018.4 1.0
30/07:30pm 26.2 28.3 22.5 80 2.5 SE 15 26 8 14 1018.2 1018.0 1.0
30/07:00pm 25.5 28.0 22.4 83 2.1 SE 13 19 7 10 1018.0 1017.8 1.0
30/06:30pm 25.6 28.3 23.5 88 1.4 SE 15 22 8 12 1017.7 1017.5 1.0
30/06:00pm 25.7 28.3 22.7 83 2.0 ESE 13 20 7 11 1017.5 1017.3 1.0
30/05:30pm 24.7 27.1 22.9 90 1.2 SE 15 24 8 13 1017.3 1017.1 1.0
30/05:00pm 25.2 28.1 23.9 92 0.9 SE 15 20 8 11 1017.1 1016.9 1.0
30/04:30pm 26.0 28.5 23.2 84 1.9 SE 15 35 8 19 1016.7 1016.5 0.2
30/04:00pm 26.8 29.9 23.6 82 2.2 ENE 13 22 7 12 1016.6 1016.4 0.2
30/03:30pm 28.7 31.2 22.5 69 4.2 ESE 13 20 7 11 1016.3 1016.1 0.2
30/03:00pm 28.1 30.3 21.8 68 4.2 SE 13 20 7 11 1016.1 1015.9 0.2
30/02:30pm 29.1 30.9 22.6 68 4.4 SE 17 30 9 16 1016.1 1015.9 0.2
30/02:00pm 29.3 31.7 22.2 65 4.8 E 13 20 7 11 1016.5 1016.3 0.2
30/01:30pm 29.3 30.8 22.0 64 4.9 E 17 22 9 12 1016.7 1016.5 0.2
30/01:00pm 29.5 32.0 22.4 65 4.8 E 13 22 7 12 1017.2 1017.0 0.2
30/12:30pm 29.1 30.7 21.5 63 5.1 E 15 24 8 13 1017.6 1017.4 0.2
30/12:00pm 29.1 30.0 20.1 58 5.9 ESE 15 26 8 14 1018.0 1017.8 0.2
30/11:30am 29.0 30.6 21.4 63 5.1 E 15 24 8 13 1018.5 1018.3 0.2
30/11:00am 29.5 30.8 22.3 65 4.9 E 19 28 10 15 1018.9 1018.7 0.2
30/10:30am 28.7 30.7 22.3 68 4.3 ENE 15 24 8 13 1019.3 1019.1 0.2
30/10:00am 27.6 31.4 23.4 78 2.9 SE 9 17 5 9 1019.4 1019.2 0.0
30/09:30am 26.6 29.0 22.9 80 2.5 ESE 15 24 8 13 1019.4 1019.2 0.0
30/09:00am 27.0 29.5 22.4 76 3.1 ESE 13 20 7 11 1019.4 1019.2 20.4
30/08:30am 26.5 28.9 23.0 81 2.4 SE 15 28 8 15 1019.2 1019.0 20.4
30/08:00am 24.4 26.1 23.1 92 0.9 SE 19 30 10 16 1018.9 1018.7 20.4
30/07:30am 24.7 27.7 23.4 92 0.9 SE 13 26 7 14 1018.3 1018.1 20.4
30/07:00am 24.3 27.9 23.7 96 0.4 NE 11 20 6 11 1018.0 1017.8 20.4
30/06:30am 23.0 26.3 22.6 98 0.3 SW 9 17 5 9 1017.8 1017.6 20.0
30/06:00am 22.7 24.8 22.4 98 0.2 SSW 15 20 8 11 1017.6 1017.4 20.0
30/05:30am 22.9 25.5 22.6 98 0.2 S 13 20 7 11 1017.5 1017.3 20.0
30/05:11am 23.2 25.1 22.8 98 0.3 SSE 17 26 9 14 1017.3 1017.1 20.0
30/05:00am 23.1 24.7 22.8 98 0.2 SSE 19 33 10 18 1017.2 1017.0 19.4
30/04:38am 22.8 26.1 22.5 98 0.2 SW 9 19 5 10 1017.1 1016.9 14.6
30/04:30am 23.0 26.7 22.6 98 0.3 SW 7 9 4 5 1017.1 1016.9 14.2
30/04:26am 23.0 26.4 22.7 98 0.2 SW 9 17 5 9 1017.1 1016.9 14.2
30/04:00am 23.1 26.5 22.7 98 0.3 SSW 9 20 5 11 1016.9 1016.7 14.0
30/03:39am 22.6 24.5 22.1 97 0.3 SSW 15 22 8 12 1016.9 1016.7 4.6
30/03:30am 22.7 24.6 22.1 96 0.4 SSW 15 19 8 10 1016.9 1016.7 3.4
30/03:00am 23.4 25.9 22.4 94 0.7 S 13 24 7 13 1016.7 1016.5 1.2
30/02:30am 23.6 25.3 22.4 93 0.8 SSE 17 24 9 13 1016.9 1016.7 1.2
30/02:00am 24.3 26.1 21.9 86 1.6 ESE 15 30 8 16 1017.4 1017.2 0.4
30/01:30am 25.7 27.8 22.4 82 2.2 SE 15 26 8 14 1017.6 1017.4 0.2
30/01:00am 24.8 25.9 23.0 90 1.2 SSE 22 32 12 17 1017.8 1017.6 0.2
30/12:30am 23.9 26.7 22.3 91 1.1 SSE 11 17 6 9 1018.1 1017.9 0.2
30/12:00am 26.3 27.1 22.4 79 2.6 SE 22 33 12 18 1018.5 1018.3 0.2
 
Date/Time
EST
Temp
°C
App
Temp
°C
Dew
Point
Rel
Hum
%
Delta-T
°C
Wind Press
QNH
hPa
Press
MSL
hPa
Rain
since 9 am
mm
Dir
 
Spd
km/h
Gust
km/h
Spd
kts
Gust
kts
29/11:30pm 25.9 27.2 22.3 80 2.4 SE 19 30 10 16 1018.7 1018.5 0.2
29/11:00pm 27.3 28.3 21.1 69 4.1 ESE 17 30 9 16 1019.0 1018.8 0.2
29/10:30pm 27.3 27.7 20.9 68 4.2 ESE 20 32 11 17 1019.2 1019.0 0.2
29/10:00pm 27.2 28.2 21.7 72 3.7 ESE 19 30 10 16 1019.3 1019.1 0.2
29/09:30pm 27.3 28.1 21.3 69 4.0 SE 19 28 10 15 1019.2 1019.0 0.2
29/09:00pm 27.1 28.1 21.1 69 4.0 ESE 17 26 9 14 1019.1 1018.9 0.2
29/08:30pm 25.5 28.4 22.5 83 2.0 SSE 11 22 6 12 1019.0 1018.8 0.2
29/08:00pm 25.0 28.1 22.8 87 1.5 S 11 17 6 9 1018.7 1018.5 0.2
29/07:30pm 25.2 27.8 22.7 86 1.7 S 13 17 7 9 1018.5 1018.3 0.2
29/07:00pm 25.5 28.1 22.7 84 1.9 S 13 22 7 12 1018.2 1018.0 0.2
29/06:30pm 26.4 28.4 22.2 78 2.8 SSE 15 20 8 11 1018.0 1017.8 0.2
29/06:00pm 27.5 28.6 20.5 65 4.6 ESE 15 24 8 13 1017.7 1017.5 0.2
29/05:30pm 27.7 28.9 20.7 65 4.6 ESE 15 24 8 13 1017.4 1017.2 0.2
29/05:00pm 28.0 29.2 20.7 64 4.8 ESE 15 22 8 12 1017.2 1017.0 0.2
29/04:30pm 28.3 29.5 20.6 63 5.1 ESE 15 26 8 14 1017.0 1016.8 0.2
29/04:00pm 28.8 30.1 20.8 62 5.3 ESE 15 26 8 14 1016.7 1016.5 0.2
29/03:30pm 28.8 30.3 20.5 61 5.5 ESE 13 20 7 11 1016.6 1016.4 0.2
29/03:00pm 29.1 29.6 20.1 58 5.9 E 17 28 9 15 1016.7 1016.5 0.2
29/02:30pm 29.4 30.0 20.3 58 6.0 E 17 26 9 14 1016.7 1016.5 0.2
29/02:00pm 29.1 30.5 21.1 62 5.3 ESE 15 24 8 13 1017.1 1016.9 0.2
29/01:30pm 29.1 30.6 21.3 62 5.2 E 15 24 8 13 1017.4 1017.2 0.2
29/01:00pm 28.6 30.4 21.2 64 4.9 E 13 20 7 11 1017.8 1017.6 0.2
29/12:30pm 28.9 30.8 21.3 63 5.1 E 13 22 7 12 1018.1 1017.9 0.2
29/12:00pm 28.5 29.6 20.5 62 5.3 E 15 24 8 13 1018.4 1018.2 0.2
29/11:30am 28.3 29.7 21.1 65 4.8 NE 15 20 8 11 1018.7 1018.5 0.2
29/11:00am 27.7 26.6 22.4 73 3.6 ENE 32 44 17 24 1018.9 1018.7 0.2
29/10:30am 30.2 30.6 20.9 57 6.2 E 20 28 11 15 1018.9 1018.7 0.0
29/10:00am 28.0 28.8 20.7 64 4.8 E 17 28 9 15 1018.9 1018.7 0.0
29/09:30am 29.0 30.3 21.7 64 4.9 ESE 17 28 9 15 1018.9 1018.7 0.0
29/09:00am 28.7 30.4 21.7 66 4.7 ESE 15 24 8 13 1018.8 1018.6 0.0
29/08:30am 27.1 29.4 22.8 77 2.9 E 15 24 8 13 1018.7 1018.5 0.0
29/08:00am 27.4 28.8 21.1 68 4.2 ESE 15 24 8 13 1018.5 1018.3 0.0
29/07:30am 27.6 29.1 20.6 65 4.6 ESE 13 28 7 15 1018.1 1017.9 0.0
29/07:00am 27.2 28.8 20.8 68 4.2 E 13 22 7 12 1017.5 1017.3 0.0
29/06:30am 26.7 26.9 20.6 69 4.0 E 20 28 11 15 1017.1 1016.9 0.0
29/06:01am 26.7 27.0 20.3 68 4.2 E 19 28 10 15 1016.8 1016.6 0.0
29/06:00am 26.8 27.0 20.2 67 4.3 E 19 28 10 15 1016.8 1016.6 0.0
29/05:30am 26.7 26.8 20.4 68 4.1 E 20 30 11 16 1016.5 1016.3 0.0
29/05:00am 26.8 27.1 20.4 68 4.2 E 19 33 10 18 1016.2 1016.0 0.0
29/04:30am 26.6 28.8 21.8 75 3.2 ESE 13 22 7 12 1015.8 1015.6 0.0
29/04:00am 26.6 28.0 21.0 71 3.7 E 15 26 8 14 1015.6 1015.4 0.0
29/03:30am 26.7 27.4 20.4 68 4.1 E 17 26 9 14 1015.6 1015.4 0.0
29/03:00am 26.7 27.2 20.9 70 3.8 E 19 30 10 16 1015.8 1015.6 0.0
29/02:30am 26.7 28.6 21.3 72 3.6 ESE 13 22 7 12 1015.9 1015.7 0.0
29/02:00am 26.7 28.0 20.8 70 3.9 E 15 24 8 13 1016.2 1016.0 0.0
29/01:30am 26.8 27.6 20.6 69 4.1 E 17 30 9 16 1016.4 1016.2 0.0
29/01:00am 26.8 27.1 20.4 68 4.2 E 19 30 10 16 1016.5 1016.3 0.0
29/12:30am 26.9 27.5 20.2 66 4.4 E 17 24 9 13 1016.8 1016.6 0.0
29/12:00am 26.9 27.6 20.5 68 4.2 ESE 17 26 9 14 1017.1 1016.9 0.0
 
Date/Time
EST
Temp
°C
App
Temp
°C
Dew
Point
Rel
Hum
%
Delta-T
°C
Wind Press
QNH
hPa
Press
MSL
hPa
Rain
since 9 am
mm
Dir
 
Spd
km/h
Gust
km/h
Spd
kts
Gust
kts
28/11:30pm 27.0 27.9 20.8 69 4.1 E 17 28 9 15 1017.3 1017.1 0.0
28/11:00pm 27.0 28.0 21.1 70 3.9 E 17 28 9 15 1017.4 1017.2 0.0
28/10:30pm 26.9 28.2 20.8 69 4.0 E 15 24 8 13 1017.6 1017.4 0.0
28/10:00pm 27.1 27.7 20.2 66 4.5 ESE 17 33 9 18 1017.6 1017.4 0.0
28/09:30pm 27.1 28.5 21.9 73 3.5 ESE 17 28 9 15 1017.6 1017.4 0.0
28/09:00pm 27.1 28.9 21.9 73 3.5 E 15 24 8 13 1017.6 1017.4 0.0
28/08:30pm 27.3 29.0 22.3 74 3.4 ESE 17 32 9 17 1017.3 1017.1 0.0
28/08:00pm 27.1 29.4 22.0 73 3.4 ESE 13 24 7 13 1017.0 1016.8 0.0
28/07:30pm 27.1 28.6 21.2 70 3.9 ESE 15 22 8 12 1016.8 1016.6 0.0
28/07:00pm 27.2 28.9 21.0 69 4.1 ESE 13 24 7 13 1016.4 1016.2 0.0
28/06:30pm 27.1 28.6 21.2 70 3.9 ESE 15 20 8 11 1015.9 1015.7 0.0

Other Formats:

Comma delimited format used in spreadsheet applications
http://www.bom.gov.au/fwo/IDQ60801/IDQ60801.94367.axf

JavaScript Object Notation format (JSON) in row-major order
http://www.bom.gov.au/fwo/IDQ60801/IDQ60801.94367.json